sensor_id;sensor_type;location;lat;lon;timestamp;pressure;altitude;pressure_sealevel;temperature;humidity
18436;BME280;9346;52.006;4.720;2023-05-12T00:00:45;101663.88;;;13.95;100.00
18436;BME280;9346;52.006;4.720;2023-05-12T00:03:12;101668.56;;;13.95;100.00
18436;BME280;9346;52.006;4.720;2023-05-12T00:05:39;101673.59;;;13.93;100.00
18436;BME280;9346;52.006;4.720;2023-05-12T00:08:06;101675.22;;;13.89;100.00
18436;BME280;9346;52.006;4.720;2023-05-12T00:10:33;101669.94;;;13.87;100.00
18436;BME280;9346;52.006;4.720;2023-05-12T00:13:01;101671.63;;;13.88;100.00
18436;BME280;9346;52.006;4.720;2023-05-12T00:15:28;101664.69;;;13.86;100.00
18436;BME280;9346;52.006;4.720;2023-05-12T00:17:57;101661.94;;;13.81;100.00
18436;BME280;9346;52.006;4.720;2023-05-12T00:20:23;101667.75;;;13.79;100.00
18436;BME280;9346;52.006;4.720;2023-05-12T00:22:51;101656.94;;;13.78;100.00
18436;BME280;9346;52.006;4.720;2023-05-12T00:25:17;101658.88;;;13.77;100.00
18436;BME280;9346;52.006;4.720;2023-05-12T00:27:44;101660.25;;;13.75;100.00
18436;BME280;9346;52.006;4.720;2023-05-12T00:30:11;101660.81;;;13.72;100.00
18436;BME280;9346;52.006;4.720;2023-05-12T00:32:38;101658.88;;;13.72;100.00
18436;BME280;9346;52.006;4.720;2023-05-12T00:35:08;101658.31;;;13.70;100.00
18436;BME280;9346;52.006;4.720;2023-05-12T00:37:34;101650.28;;;13.69;100.00
18436;BME280;9346;52.006;4.720;2023-05-12T00:40:04;101655.25;;;13.67;100.00
18436;BME280;9346;52.006;4.720;2023-05-12T00:42:33;101654.72;;;13.65;100.00
18436;BME280;9346;52.006;4.720;2023-05-12T00:45:00;101655.53;;;13.65;100.00
18436;BME280;9346;52.006;4.720;2023-05-12T00:47:27;101653.59;;;13.66;100.00
18436;BME280;9346;52.006;4.720;2023-05-12T00:49:54;101655.25;;;13.62;100.00
18436;BME280;9346;52.006;4.720;2023-05-12T00:52:24;101654.44;;;13.61;100.00
18436;BME280;9346;52.006;4.720;2023-05-12T00:54:51;101653.63;;;13.61;100.00
18436;BME280;9346;52.006;4.720;2023-05-12T00:57:19;101653.03;;;13.59;100.00
18436;BME280;9346;52.006;4.720;2023-05-12T00:59:47;101654.97;;;13.58;100.00
18436;BME280;9346;52.006;4.720;2023-05-12T01:02:14;101653.34;;;13.62;100.00
18436;BME280;9346;52.006;4.720;2023-05-12T01:04:42;101645.31;;;13.61;100.00
18436;BME280;9346;52.006;4.720;2023-05-12T01:07:11;101640.84;;;13.60;100.00
18436;BME280;9346;52.006;4.720;2023-05-12T01:09:43;101648.06;;;13.56;100.00
18436;BME280;9346;52.006;4.720;2023-05-12T01:12:10;101642.50;;;13.50;100.00
18436;BME280;9346;52.006;4.720;2023-05-12T01:14:37;101641.13;;;13.48;100.00
18436;BME280;9346;52.006;4.720;2023-05-12T01:17:09;101636.97;;;13.45;100.00
18436;BME280;9346;52.006;4.720;2023-05-12T01:19:40;101642.22;;;13.37;100.00
18436;BME280;9346;52.006;4.720;2023-05-12T01:22:08;101641.09;;;13.33;100.00
18436;BME280;9346;52.006;4.720;2023-05-12T01:24:40;101639.16;;;13.28;100.00
18436;BME280;9346;52.006;4.720;2023-05-12T01:27:12;101633.91;;;13.27;100.00
18436;BME280;9346;52.006;4.720;2023-05-12T01:29:40;101635.81;;;13.26;100.00
18436;BME280;9346;52.006;4.720;2023-05-12T01:32:08;101637.47;;;13.27;100.00
18436;BME280;9346;52.006;4.720;2023-05-12T01:34:35;101641.91;;;13.23;100.00
18436;BME280;9346;52.006;4.720;2023-05-12T01:37:05;101639.66;;;13.20;100.00
18436;BME280;9346;52.006;4.720;2023-05-12T01:39:32;101636.06;;;13.15;100.00
18436;BME280;9346;52.006;4.720;2023-05-12T01:42:00;101633.53;;;13.08;100.00
18436;BME280;9346;52.006;4.720;2023-05-12T01:44:28;101644.59;;;13.08;100.00
18436;BME280;9346;52.006;4.720;2023-05-12T01:46:56;101641.28;;;13.06;100.00
18436;BME280;9346;52.006;4.720;2023-05-12T01:49:23;101629.13;;;13.02;100.00
18436;BME280;9346;52.006;4.720;2023-05-12T01:51:50;101635.19;;;12.99;100.00
18436;BME280;9346;52.006;4.720;2023-05-12T01:54:17;101640.72;;;12.99;100.00
18436;BME280;9346;52.006;4.720;2023-05-12T01:56:45;101643.72;;;12.98;100.00
18436;BME280;9346;52.006;4.720;2023-05-12T01:59:12;101640.13;;;12.97;100.00
18436;BME280;9346;52.006;4.720;2023-05-12T02:01:40;101640.66;;;12.94;100.00
18436;BME280;9346;52.006;4.720;2023-05-12T02:04:07;101635.41;;;12.93;100.00
18436;BME280;9346;52.006;4.720;2023-05-12T02:06:34;101642.84;;;12.92;100.00
18436;BME280;9346;52.006;4.720;2023-05-12T02:09:01;101637.31;;;12.92;100.00
18436;BME280;9346;52.006;4.720;2023-05-12T02:11:29;101636.50;;;12.92;100.00
18436;BME280;9346;52.006;4.720;2023-05-12T02:13:56;101631.53;;;12.94;100.00
18436;BME280;9346;52.006;4.720;2023-05-12T02:16:23;101631.53;;;12.94;100.00
18436;BME280;9346;52.006;4.720;2023-05-12T02:18:52;101633.22;;;12.95;100.00
18436;BME280;9346;52.006;4.720;2023-05-12T02:21:19;101629.03;;;12.92;100.00
18436;BME280;9346;52.006;4.720;2023-05-12T02:23:46;101628.22;;;12.92;100.00
18436;BME280;9346;52.006;4.720;2023-05-12T02:26:13;101623.22;;;12.94;100.00
18436;BME280;9346;52.006;4.720;2023-05-12T02:28:40;101625.19;;;12.93;100.00
18436;BME280;9346;52.006;4.720;2023-05-12T02:31:06;101629.59;;;12.94;100.00
18436;BME280;9346;52.006;4.720;2023-05-12T02:33:33;101623.22;;;12.94;100.00
18436;BME280;9346;52.006;4.720;2023-05-12T02:36:03;101626.84;;;12.94;100.00
18436;BME280;9346;52.006;4.720;2023-05-12T02:38:30;101623.78;;;12.96;100.00
18436;BME280;9346;52.006;4.720;2023-05-12T02:40:57;101621.88;;;12.96;100.00
18436;BME280;9346;52.006;4.720;2023-05-12T02:43:24;101617.97;;;12.92;100.00
18436;BME280;9346;52.006;4.720;2023-05-12T02:45:51;101618.53;;;12.89;100.00
18436;BME280;9346;52.006;4.720;2023-05-12T02:48:18;101613.53;;;12.86;100.00
18436;BME280;9346;52.006;4.720;2023-05-12T02:50:45;101606.88;;;12.82;100.00
18436;BME280;9346;52.006;4.720;2023-05-12T02:53:13;101616.00;;;12.83;100.00
18436;BME280;9346;52.006;4.720;2023-05-12T02:55:40;101608.28;;;12.85;100.00
18436;BME280;9346;52.006;4.720;2023-05-12T02:58:09;101611.59;;;12.82;100.00
18436;BME280;9346;52.006;4.720;2023-05-12T03:00:36;101603.00;;;12.78;100.00
18436;BME280;9346;52.006;4.720;2023-05-12T03:03:03;101603.25;;;12.77;100.00
18436;BME280;9346;52.006;4.720;2023-05-12T03:05:30;101598.56;;;12.77;100.00
18436;BME280;9346;52.006;4.720;2023-05-12T03:07:57;101606.03;;;12.77;100.00
18436;BME280;9346;52.006;4.720;2023-05-12T03:10:26;101596.88;;;12.76;100.00
18436;BME280;9346;52.006;4.720;2023-05-12T03:12:53;101598.25;;;12.74;100.00
18436;BME280;9346;52.006;4.720;2023-05-12T03:15:20;101596.31;;;12.69;100.00
18436;BME280;9346;52.006;4.720;2023-05-12T03:17:48;101599.91;;;12.70;100.00
18436;BME280;9346;52.006;4.720;2023-05-12T03:20:15;101596.31;;;12.69;100.00
18436;BME280;9346;52.006;4.720;2023-05-12T03:22:42;101595.78;;;12.67;100.00
18436;BME280;9346;52.006;4.720;2023-05-12T03:25:09;101588.81;;;12.65;100.00
18436;BME280;9346;52.006;4.720;2023-05-12T03:27:38;101592.44;;;12.60;100.00
18436;BME280;9346;52.006;4.720;2023-05-12T03:30:07;101596.28;;;12.59;100.00
18436;BME280;9346;52.006;4.720;2023-05-12T03:32:33;101593.50;;;12.59;100.00
18436;BME280;9346;52.006;4.720;2023-05-12T03:35:03;101587.97;;;12.59;100.00
18436;BME280;9346;52.006;4.720;2023-05-12T03:37:30;101581.63;;;12.59;100.00
18436;BME280;9346;52.006;4.720;2023-05-12T03:39:57;101576.66;;;12.56;100.00
18436;BME280;9346;52.006;4.720;2023-05-12T03:42:25;101572.19;;;12.55;100.00
18436;BME280;9346;52.006;4.720;2023-05-12T03:44:55;101574.97;;;12.55;100.00
18436;BME280;9346;52.006;4.720;2023-05-12T03:47:22;101574.97;;;12.55;100.00
18436;BME280;9346;52.006;4.720;2023-05-12T03:49:49;101573.63;;;12.57;100.00
18436;BME280;9346;52.006;4.720;2023-05-12T03:52:16;101567.25;;;12.57;100.00
18436;BME280;9346;52.006;4.720;2023-05-12T03:54:43;101572.78;;;12.57;100.00
18436;BME280;9346;52.006;4.720;2023-05-12T03:57:11;101567.81;;;12.59;100.00
18436;BME280;9346;52.006;4.720;2023-05-12T03:59:38;101566.97;;;12.58;100.00
18436;BME280;9346;52.006;4.720;2023-05-12T04:02:08;101583.56;;;12.58;100.00
18436;BME280;9346;52.006;4.720;2023-05-12T04:04:37;101587.72;;;12.61;100.00
18436;BME280;9346;52.006;4.720;2023-05-12T04:07:04;101577.50;;;12.61;100.00
18436;BME280;9346;52.006;4.720;2023-05-12T04:09:31;101579.16;;;12.62;100.00
18436;BME280;9346;52.006;4.720;2023-05-12T04:11:58;101586.06;;;12.60;100.00
18436;BME280;9346;52.006;4.720;2023-05-12T04:14:25;101574.72;;;12.61;100.00
18436;BME280;9346;52.006;4.720;2023-05-12T04:16:52;101573.09;;;12.65;100.00
18436;BME280;9346;52.006;4.720;2023-05-12T04:19:21;101582.50;;;12.64;100.00
18436;BME280;9346;52.006;4.720;2023-05-12T04:21:49;101578.63;;;12.65;100.00
18436;BME280;9346;52.006;4.720;2023-05-12T04:24:16;101570.91;;;12.67;100.00
18436;BME280;9346;52.006;4.720;2023-05-12T04:26:43;101576.97;;;12.69;100.00
18436;BME280;9346;52.006;4.720;2023-05-12T04:29:10;101581.41;;;12.70;100.00
18436;BME280;9346;52.006;4.720;2023-05-12T04:31:37;101578.09;;;12.73;100.00
18436;BME280;9346;52.006;4.720;2023-05-12T04:34:04;101581.69;;;12.74;100.00
18436;BME280;9346;52.006;4.720;2023-05-12T04:36:33;101579.75;;;12.74;100.00
18436;BME280;9346;52.006;4.720;2023-05-12T04:39:00;101572.84;;;12.77;100.00
18436;BME280;9346;52.006;4.720;2023-05-12T04:41:26;101575.63;;;12.77;100.00
18436;BME280;9346;52.006;4.720;2023-05-12T04:43:54;101581.13;;;12.77;100.00
18436;BME280;9346;52.006;4.720;2023-05-12T04:46:21;101579.75;;;12.79;100.00
18436;BME280;9346;52.006;4.720;2023-05-12T04:48:48;101588.91;;;12.80;100.00
18436;BME280;9346;52.006;4.720;2023-05-12T04:51:15;101591.97;;;12.83;100.00
18436;BME280;9346;52.006;4.720;2023-05-12T04:53:43;101591.97;;;12.83;100.00
18436;BME280;9346;52.006;4.720;2023-05-12T04:56:10;101592.22;;;12.87;100.00
18436;BME280;9346;52.006;4.720;2023-05-12T04:58:37;101592.81;;;12.89;100.00
18436;BME280;9346;52.006;4.720;2023-05-12T05:01:04;101600.84;;;12.90;100.00
18436;BME280;9346;52.006;4.720;2023-05-12T05:03:31;101606.09;;;12.92;100.00
18436;BME280;9346;52.006;4.720;2023-05-12T05:05:58;101609.41;;;12.94;100.00
18436;BME280;9346;52.006;4.720;2023-05-12T05:08:28;101608.84;;;12.92;100.00
18436;BME280;9346;52.006;4.720;2023-05-12T05:10:57;101610.25;;;12.94;100.00
18436;BME280;9346;52.006;4.720;2023-05-12T05:13:24;101618.84;;;12.98;100.00
18436;BME280;9346;52.006;4.720;2023-05-12T05:15:52;101624.94;;;13.00;100.00
18436;BME280;9346;52.006;4.720;2023-05-12T05:18:19;101622.47;;;13.03;100.00
18436;BME280;9346;52.006;4.720;2023-05-12T05:20:47;101633.00;;;13.06;100.00
18436;BME280;9346;52.006;4.720;2023-05-12T05:23:14;101634.09;;;13.05;100.00
18436;BME280;9346;52.006;4.720;2023-05-12T05:25:41;101637.44;;;13.12;100.00
18436;BME280;9346;52.006;4.720;2023-05-12T05:28:10;101639.94;;;13.19;100.00
18436;BME280;9346;52.006;4.720;2023-05-12T05:30:37;101640.47;;;13.16;100.00
18436;BME280;9346;52.006;4.720;2023-05-12T05:33:04;101641.31;;;13.21;100.00
18436;BME280;9346;52.006;4.720;2023-05-12T05:35:31;101641.91;;;13.18;100.00
18436;BME280;9346;52.006;4.720;2023-05-12T05:37:58;101644.09;;;13.16;100.00
18436;BME280;9346;52.006;4.720;2023-05-12T05:40:25;101644.66;;;13.18;100.00
18436;BME280;9346;52.006;4.720;2023-05-12T05:42:52;101650.19;;;13.18;100.00
18436;BME280;9346;52.006;4.720;2023-05-12T05:45:21;101650.75;;;13.15;100.00
18436;BME280;9346;52.006;4.720;2023-05-12T05:47:48;101642.97;;;13.17;100.00
18436;BME280;9346;52.006;4.720;2023-05-12T05:50:17;101647.97;;;13.20;100.00
18436;BME280;9346;52.006;4.720;2023-05-12T05:52:44;101653.50;;;13.20;100.00
18436;BME280;9346;52.006;4.720;2023-05-12T05:55:13;101656.00;;;13.22;100.00
18436;BME280;9346;52.006;4.720;2023-05-12T05:57:50;101658.22;;;13.25;100.00
18436;BME280;9346;52.006;4.720;2023-05-12T06:00:18;101661.84;;;13.25;100.00
18436;BME280;9346;52.006;4.720;2023-05-12T06:02:47;101663.75;;;13.25;100.00
18436;BME280;9346;52.006;4.720;2023-05-12T06:05:14;101665.13;;;13.22;100.00
18436;BME280;9346;52.006;4.720;2023-05-12T06:07:41;101665.13;;;13.27;100.00
18436;BME280;9346;52.006;4.720;2023-05-12T06:10:08;101657.72;;;13.33;100.00
18436;BME280;9346;52.006;4.720;2023-05-12T06:12:34;101662.41;;;13.32;100.00
18436;BME280;9346;52.006;4.720;2023-05-12T06:15:01;101658.53;;;13.38;100.00
18436;BME280;9346;52.006;4.720;2023-05-12T06:17:29;101661.59;;;13.37;100.00
18436;BME280;9346;52.006;4.720;2023-05-12T06:19:58;101661.03;;;13.40;100.00
18436;BME280;9346;52.006;4.720;2023-05-12T06:22:25;101674.03;;;13.39;100.00
18436;BME280;9346;52.006;4.720;2023-05-12T06:24:52;101666.84;;;13.38;100.00
18436;BME280;9346;52.006;4.720;2023-05-12T06:27:19;101671.03;;;13.46;100.00
18436;BME280;9346;52.006;4.720;2023-05-12T06:29:46;101668.25;;;13.51;100.00
18436;BME280;9346;52.006;4.720;2023-05-12T06:32:12;101667.97;;;13.52;100.00
18436;BME280;9346;52.006;4.720;2023-05-12T06:34:40;101670.19;;;13.50;100.00
18436;BME280;9346;52.006;4.720;2023-05-12T06:37:08;101671.28;;;13.49;100.00
18436;BME280;9346;52.006;4.720;2023-05-12T06:39:35;101675.72;;;13.50;100.00
18436;BME280;9346;52.006;4.720;2023-05-12T06:42:03;101675.72;;;13.56;100.00
18436;BME280;9346;52.006;4.720;2023-05-12T06:44:30;101678.50;;;13.56;100.00
18436;BME280;9346;52.006;4.720;2023-05-12T06:46:57;101679.06;;;13.63;100.00
18436;BME280;9346;52.006;4.720;2023-05-12T06:49:25;101685.44;;;13.63;100.00
18436;BME280;9346;52.006;4.720;2023-05-12T06:51:52;101676.88;;;13.65;100.00
18436;BME280;9346;52.006;4.720;2023-05-12T06:54:20;101677.13;;;13.68;100.00
18436;BME280;9346;52.006;4.720;2023-05-12T06:56:48;101680.19;;;13.72;100.00
18436;BME280;9346;52.006;4.720;2023-05-12T06:59:16;101686.84;;;13.71;100.00
18436;BME280;9346;52.006;4.720;2023-05-12T07:01:42;101690.16;;;13.73;100.00
18436;BME280;9346;52.006;4.720;2023-05-12T07:04:09;101685.47;;;13.78;100.00
18436;BME280;9346;52.006;4.720;2023-05-12T07:06:37;101694.06;;;13.82;100.00
18436;BME280;9346;52.006;4.720;2023-05-12T07:09:04;101690.16;;;13.83;100.00
18436;BME280;9346;52.006;4.720;2023-05-12T07:11:32;101693.53;;;13.90;100.00
18436;BME280;9346;52.006;4.720;2023-05-12T07:14:00;101697.94;;;13.91;100.00
18436;BME280;9346;52.006;4.720;2023-05-12T07:16:27;101702.66;;;13.95;100.00
18436;BME280;9346;52.006;4.720;2023-05-12T07:18:54;101702.09;;;14.03;100.00
18436;BME280;9346;52.006;4.720;2023-05-12T07:21:21;101707.66;;;14.08;100.00
18436;BME280;9346;52.006;4.720;2023-05-12T07:23:48;101703.50;;;14.16;100.00
18436;BME280;9346;52.006;4.720;2023-05-12T07:26:15;101698.78;;;14.16;100.00
18436;BME280;9346;52.006;4.720;2023-05-12T07:28:44;101704.31;;;14.21;100.00
18436;BME280;9346;52.006;4.720;2023-05-12T07:31:12;101706.84;;;14.28;100.00
18436;BME280;9346;52.006;4.720;2023-05-12T07:33:39;101706.56;;;14.34;100.00
18436;BME280;9346;52.006;4.720;2023-05-12T07:36:09;101709.88;;;14.41;100.00
18436;BME280;9346;52.006;4.720;2023-05-12T07:38:36;101703.22;;;14.47;100.00
18436;BME280;9346;52.006;4.720;2023-05-12T07:41:03;101704.88;;;14.48;100.00
18436;BME280;9346;52.006;4.720;2023-05-12T07:43:30;101705.97;;;14.52;100.00
18436;BME280;9346;52.006;4.720;2023-05-12T07:46:00;101708.47;;;14.59;100.00
18436;BME280;9346;52.006;4.720;2023-05-12T07:48:27;101701.53;;;14.66;100.00
18436;BME280;9346;52.006;4.720;2023-05-12T07:50:54;101699.56;;;14.67;100.00
18436;BME280;9346;52.006;4.720;2023-05-12T07:53:21;101700.13;;;14.74;100.00
18436;BME280;9346;52.006;4.720;2023-05-12T07:55:48;101699.81;;;14.80;100.00
18436;BME280;9346;52.006;4.720;2023-05-12T07:58:16;101706.75;;;14.83;100.00
18436;BME280;9346;52.006;4.720;2023-05-12T08:00:43;101698.94;;;14.95;100.00
18436;BME280;9346;52.006;4.720;2023-05-12T08:03:11;101711.41;;;15.02;100.00
18436;BME280;9346;52.006;4.720;2023-05-12T08:05:40;101718.59;;;15.08;100.00
18436;BME280;9346;52.006;4.720;2023-05-12T08:08:07;101710.53;;;15.17;100.00
18436;BME280;9346;52.006;4.720;2023-05-12T08:10:43;101716.06;;;15.22;100.00
18436;BME280;9346;52.006;4.720;2023-05-12T08:13:11;101712.97;;;15.28;100.00
18436;BME280;9346;52.006;4.720;2023-05-12T08:15:38;101720.16;;;15.34;100.00
18436;BME280;9346;52.006;4.720;2023-05-12T08:18:05;101722.13;;;15.39;100.00
18436;BME280;9346;52.006;4.720;2023-05-12T08:20:34;101732.09;;;15.40;100.00
18436;BME280;9346;52.006;4.720;2023-05-12T08:23:00;101723.47;;;15.41;100.00
18436;BME280;9346;52.006;4.720;2023-05-12T08:25:28;101726.81;;;15.43;100.00
18436;BME280;9346;52.006;4.720;2023-05-12T08:27:55;101722.63;;;15.51;100.00
18436;BME280;9346;52.006;4.720;2023-05-12T08:30:24;101724.22;;;15.57;100.00
18436;BME280;9346;52.006;4.720;2023-05-12T08:32:51;101718.09;;;15.60;100.00
18436;BME280;9346;52.006;4.720;2023-05-12T08:35:18;101720.28;;;15.68;100.00
18436;BME280;9346;52.006;4.720;2023-05-12T08:37:47;101721.06;;;15.79;100.00
18436;BME280;9346;52.006;4.720;2023-05-12T08:40:21;101729.91;;;15.86;100.00
18436;BME280;9346;52.006;4.720;2023-05-12T08:42:52;101726.28;;;15.90;100.00
18436;BME280;9346;52.006;4.720;2023-05-12T08:45:21;101720.94;;;15.94;100.00
18436;BME280;9346;52.006;4.720;2023-05-12T08:47:49;101721.44;;;16.01;100.00
18436;BME280;9346;52.006;4.720;2023-05-12T08:50:17;101722.78;;;16.08;100.00
18436;BME280;9346;52.006;4.720;2023-05-12T08:52:48;101723.56;;;16.14;100.00
18436;BME280;9346;52.006;4.720;2023-05-12T08:55:16;101724.31;;;16.24;100.00
18436;BME280;9346;52.006;4.720;2023-05-12T08:57:46;101728.44;;;16.32;100.00
18436;BME280;9346;52.006;4.720;2023-05-12T09:00:15;101732.84;;;16.38;100.00
18436;BME280;9346;52.006;4.720;2023-05-12T09:02:42;101731.41;;;16.40;100.00
18436;BME280;9346;52.006;4.720;2023-05-12T09:05:09;101727.25;;;16.43;100.00
18436;BME280;9346;52.006;4.720;2023-05-12T09:07:41;101729.16;;;16.47;100.00
18436;BME280;9346;52.006;4.720;2023-05-12T09:10:14;101726.88;;;16.54;100.00
18436;BME280;9346;52.006;4.720;2023-05-12T09:12:46;101729.78;;;16.68;100.00
18436;BME280;9346;52.006;4.720;2023-05-12T09:15:19;101731.47;;;16.69;100.00
18436;BME280;9346;52.006;4.720;2023-05-12T09:17:51;101730.06;;;16.71;100.00
18436;BME280;9346;52.006;4.720;2023-05-12T09:20:18;101731.06;;;16.80;100.00
18436;BME280;9346;52.006;4.720;2023-05-12T09:22:45;101722.66;;;16.85;100.00
18436;BME280;9346;52.006;4.720;2023-05-12T09:25:18;101725.09;;;16.92;100.00
18436;BME280;9346;52.006;4.720;2023-05-12T09:27:47;101721.44;;;16.96;100.00
18436;BME280;9346;52.006;4.720;2023-05-12T09:30:14;101725.28;;;17.00;100.00
18436;BME280;9346;52.006;4.720;2023-05-12T09:32:41;101726.41;;;16.99;100.00
18436;BME280;9346;52.006;4.720;2023-05-12T09:35:09;101728.66;;;16.97;100.00
18436;BME280;9346;52.006;4.720;2023-05-12T09:37:38;101726.09;;;17.01;100.00
18436;BME280;9346;52.006;4.720;2023-05-12T09:40:06;101728.00;;;17.05;100.00
18436;BME280;9346;52.006;4.720;2023-05-12T09:42:37;101736.00;;;17.12;100.00
18436;BME280;9346;52.006;4.720;2023-05-12T09:45:08;101740.31;;;17.23;100.00
18436;BME280;9346;52.006;4.720;2023-05-12T09:47:36;101734.09;;;17.31;100.00
18436;BME280;9346;52.006;4.720;2023-05-12T09:50:05;101737.69;;;17.31;100.00
18436;BME280;9346;52.006;4.720;2023-05-12T09:52:35;101733.72;;;17.37;100.00
18436;BME280;9346;52.006;4.720;2023-05-12T09:55:05;101734.53;;;17.43;100.00
18436;BME280;9346;52.006;4.720;2023-05-12T09:57:35;101726.41;;;17.46;100.00
18436;BME280;9346;52.006;4.720;2023-05-12T10:00:06;101726.84;;;17.53;100.00
18436;BME280;9346;52.006;4.720;2023-05-12T10:02:33;101734.03;;;17.59;100.00
18436;BME280;9346;52.006;4.720;2023-05-12T10:05:04;101727.56;;;17.64;100.00
18436;BME280;9346;52.006;4.720;2023-05-12T10:07:33;101729.38;;;17.73;100.00
18436;BME280;9346;52.006;4.720;2023-05-12T10:10:02;101732.63;;;17.81;100.00
18436;BME280;9346;52.006;4.720;2023-05-12T10:12:31;101729.97;;;17.89;100.00
18436;BME280;9346;52.006;4.720;2023-05-12T10:15:00;101736.91;;;17.92;100.00
18436;BME280;9346;52.006;4.720;2023-05-12T10:17:30;101730.66;;;18.00;100.00
18436;BME280;9346;52.006;4.720;2023-05-12T10:19:58;101738.56;;;18.11;100.00
18436;BME280;9346;52.006;4.720;2023-05-12T10:22:25;101729.72;;;18.23;100.00
18436;BME280;9346;52.006;4.720;2023-05-12T10:24:56;101737.63;;;18.34;100.00
18436;BME280;9346;52.006;4.720;2023-05-12T10:27:23;101726.16;;;18.36;100.00
18436;BME280;9346;52.006;4.720;2023-05-12T10:29:51;101738.09;;;18.41;100.00
18436;BME280;9346;52.006;4.720;2023-05-12T10:32:19;101726.16;;;18.54;100.00
18436;BME280;9346;52.006;4.720;2023-05-12T10:34:49;101732.69;;;18.63;100.00
18436;BME280;9346;52.006;4.720;2023-05-12T10:37:16;101727.84;;;18.69;100.00
18436;BME280;9346;52.006;4.720;2023-05-12T10:39:47;101741.06;;;18.77;100.00
18436;BME280;9346;52.006;4.720;2023-05-12T10:42:16;101733.03;;;18.89;100.00
18436;BME280;9346;52.006;4.720;2023-05-12T10:44:49;101729.72;;;18.87;100.00
18436;BME280;9346;52.006;4.720;2023-05-12T10:47:17;101735.00;;;18.88;100.00
18436;BME280;9346;52.006;4.720;2023-05-12T10:49:44;101741.72;;;18.87;100.00
18436;BME280;9346;52.006;4.720;2023-05-12T10:52:18;101733.13;;;18.84;100.00
18436;BME280;9346;52.006;4.720;2023-05-12T10:54:46;101737.81;;;18.88;100.00
18436;BME280;9346;52.006;4.720;2023-05-12T10:57:13;101730.34;;;18.97;100.00
18436;BME280;9346;52.006;4.720;2023-05-12T10:59:47;101730.25;;;19.02;100.00
18436;BME280;9346;52.006;4.720;2023-05-12T11:02:16;101725.50;;;19.03;100.00
18436;BME280;9346;52.006;4.720;2023-05-12T11:04:49;101733.28;;;19.06;100.00
18436;BME280;9346;52.006;4.720;2023-05-12T11:07:22;101727.66;;;19.19;100.00
18436;BME280;9346;52.006;4.720;2023-05-12T11:09:50;101735.47;;;19.36;100.00
18436;BME280;9346;52.006;4.720;2023-05-12T11:12:18;101728.09;;;19.53;100.00
18436;BME280;9346;52.006;4.720;2023-05-12T11:14:45;101734.94;;;19.61;100.00
18436;BME280;9346;52.006;4.720;2023-05-12T11:17:14;101725.72;;;19.60;100.00
18436;BME280;9346;52.006;4.720;2023-05-12T11:19:47;101733.47;;;19.63;100.00
18436;BME280;9346;52.006;4.720;2023-05-12T11:22:17;101738.22;;;19.63;100.00
18436;BME280;9346;52.006;4.720;2023-05-12T11:24:48;101744.97;;;19.62;100.00
18436;BME280;9346;52.006;4.720;2023-05-12T11:27:19;101741.78;;;19.55;100.00
18436;BME280;9346;52.006;4.720;2023-05-12T11:29:55;101746.22;;;19.56;100.00
18436;BME280;9346;52.006;4.720;2023-05-12T11:32:24;101752.19;;;19.63;100.00
18436;BME280;9346;52.006;4.720;2023-05-12T11:34:51;101753.22;;;19.67;100.00
18436;BME280;9346;52.006;4.720;2023-05-12T11:37:19;101748.38;;;19.72;100.00
18436;BME280;9346;52.006;4.720;2023-05-12T11:39:47;101739.22;;;19.80;100.00
18436;BME280;9346;52.006;4.720;2023-05-12T11:42:18;101749.78;;;19.83;100.00
18436;BME280;9346;52.006;4.720;2023-05-12T11:44:46;101747.06;;;19.92;100.00
18436;BME280;9346;52.006;4.720;2023-05-12T11:47:14;101756.06;;;20.03;100.00
18436;BME280;9346;52.006;4.720;2023-05-12T11:49:48;101744.03;;;20.16;100.00
18436;BME280;9346;52.006;4.720;2023-05-12T11:52:16;101754.78;;;20.22;100.00
18436;BME280;9346;52.006;4.720;2023-05-12T11:54:49;101751.31;;;20.25;100.00
18436;BME280;9346;52.006;4.720;2023-05-12T11:57:27;101750.38;;;20.30;100.00
18436;BME280;9346;52.006;4.720;2023-05-12T11:59:55;101757.19;;;20.37;100.00
18436;BME280;9346;52.006;4.720;2023-05-12T12:02:25;101756.03;;;20.38;100.00
18436;BME280;9346;52.006;4.720;2023-05-12T12:04:53;101756.03;;;20.38;100.00
18436;BME280;9346;52.006;4.720;2023-05-12T12:07:35;101750.97;;;20.40;100.00
18436;BME280;9346;52.006;4.720;2023-05-12T12:10:13;101759.03;;;20.42;100.00
18436;BME280;9346;52.006;4.720;2023-05-12T12:12:42;101754.50;;;20.54;100.00
18436;BME280;9346;52.006;4.720;2023-05-12T12:15:10;101765.91;;;20.58;100.00
18436;BME280;9346;52.006;4.720;2023-05-12T12:17:38;101770.88;;;20.61;100.00
18436;BME280;9346;52.006;4.720;2023-05-12T12:20:07;101777.78;;;20.63;100.00
18436;BME280;9346;52.006;4.720;2023-05-12T12:22:34;101771.88;;;20.65;100.00
18436;BME280;9346;52.006;4.720;2023-05-12T12:25:01;101780.28;;;20.65;100.00
18436;BME280;9346;52.006;4.720;2023-05-12T12:27:31;101770.88;;;20.61;100.00
18436;BME280;9346;52.006;4.720;2023-05-12T12:29:59;101771.06;;;20.64;100.00
18436;BME280;9346;52.006;4.720;2023-05-12T12:32:28;101778.84;;;20.67;100.00
18436;BME280;9346;52.006;4.720;2023-05-12T12:34:56;101787.59;;;20.74;100.00
18436;BME280;9346;52.006;4.720;2023-05-12T12:37:24;101785.28;;;20.76;100.00
18436;BME280;9346;52.006;4.720;2023-05-12T12:39:53;101771.50;;;20.80;100.00
18436;BME280;9346;52.006;4.720;2023-05-12T12:42:20;101773.69;;;20.91;100.00
18436;BME280;9346;52.006;4.720;2023-05-12T12:44:51;101775.88;;;20.94;100.00
18436;BME280;9346;52.006;4.720;2023-05-12T12:47:18;101780.38;;;21.04;100.00
18436;BME280;9346;52.006;4.720;2023-05-12T12:49:47;101780.06;;;21.05;100.00
18436;BME280;9346;52.006;4.720;2023-05-12T12:52:15;101779.09;;;21.10;100.00
18436;BME280;9346;52.006;4.720;2023-05-12T12:54:42;101767.88;;;21.10;100.00